createdAt,value
2022-09-07T00:01:22.799Z,9.20
2022-09-07T00:03:56.081Z,9.00
2022-09-07T00:06:25.288Z,9.00
2022-09-07T00:08:54.048Z,9.40
2022-09-07T00:11:22.686Z,8.60
2022-09-07T00:13:51.248Z,9.00
2022-09-07T00:16:23.717Z,8.20
2022-09-07T00:18:55.617Z,10.20
2022-09-07T00:21:25.316Z,8.20
2022-09-07T00:23:54.284Z,8.80
2022-09-07T00:26:24.303Z,9.00
2022-09-07T00:28:53.869Z,8.40
2022-09-07T00:31:24.260Z,9.20
2022-09-07T00:33:55.712Z,9.80
2022-09-07T00:36:24.623Z,6.20
2022-09-07T00:38:53.165Z,8.00
2022-09-07T00:41:22.776Z,7.00
2022-09-07T00:43:53.925Z,8.40
2022-09-07T00:46:24.646Z,7.80
2022-09-07T00:49:01.414Z,9.20
2022-09-07T00:51:34.585Z,8.40
2022-09-07T00:54:08.714Z,7.60
2022-09-07T00:56:40.952Z,7.60
2022-09-07T00:59:12.206Z,8.20
2022-09-07T01:01:40.964Z,7.60
2022-09-07T01:04:11.607Z,8.40
2022-09-07T01:06:42.494Z,8.60
2022-09-07T01:09:14.784Z,8.00
2022-09-07T01:11:45.761Z,7.40
2022-09-07T01:14:16.813Z,9.40
2022-09-07T01:16:59.789Z,8.60
2022-09-07T01:20:01.530Z,10.00
2022-09-07T01:22:56.067Z,7.80
2022-09-07T01:25:37.684Z,8.80
2022-09-07T01:28:14.996Z,7.80
2022-09-07T01:30:53.050Z,6.80
2022-09-07T01:33:34.219Z,8.80
2022-09-07T01:36:17.010Z,8.00
2022-09-07T01:38:48.926Z,9.00
2022-09-07T01:41:24.763Z,8.00
2022-09-07T01:44:02.065Z,8.60
2022-09-07T01:46:35.750Z,8.80
2022-09-07T01:49:11.330Z,8.00
2022-09-07T01:51:45.291Z,8.60
2022-09-07T01:54:20.328Z,6.80
2022-09-07T01:56:54.089Z,8.80
2022-09-07T01:59:31.478Z,7.60
2022-09-07T02:02:07.782Z,9.00
2022-09-07T02:04:42.596Z,9.20
2022-09-07T02:07:16.360Z,8.00
2022-09-07T02:09:52.332Z,9.20
2022-09-07T02:12:25.968Z,8.00
2022-09-07T02:15:00.690Z,8.00
2022-09-07T02:17:34.950Z,9.00
2022-09-07T02:20:10.380Z,7.60
2022-09-07T02:22:43.113Z,8.00
2022-09-07T02:25:18.235Z,9.80
2022-09-07T02:27:51.360Z,9.00
2022-09-07T02:30:21.552Z,8.40
2022-09-07T02:32:50.429Z,9.00
2022-09-07T02:35:19.285Z,9.00
2022-09-07T02:37:50.780Z,9.00
2022-09-07T02:40:19.777Z,10.80
2022-09-07T02:42:50.358Z,7.60
2022-09-07T02:45:19.637Z,9.40
2022-09-07T02:48:08.435Z,9.00
2022-09-07T02:50:58.730Z,9.40
2022-09-07T02:53:42.084Z,7.80
2022-09-07T02:56:21.394Z,8.20
2022-09-07T02:58:56.944Z,10.40
2022-09-07T03:01:37.188Z,7.00
2022-09-07T03:04:16.233Z,9.20
2022-09-07T03:06:49.200Z,9.40
2022-09-07T03:09:22.917Z,9.00
2022-09-07T03:11:53.539Z,10.00
2022-09-07T03:14:23.876Z,10.40
2022-09-07T03:16:55.929Z,8.00
2022-09-07T03:19:26.142Z,8.00
2022-09-07T03:21:54.914Z,8.60
2022-09-07T03:24:23.434Z,8.00
2022-09-07T03:26:52.488Z,8.60
2022-09-07T03:29:21.260Z,9.00
2022-09-07T03:31:49.969Z,8.00
2022-09-07T03:34:18.768Z,7.60
2022-09-07T03:36:48.971Z,12.60
2022-09-07T03:39:20.909Z,17.00
2022-09-07T03:41:49.891Z,9.00
2022-09-07T03:44:18.379Z,10.00
2022-09-07T03:46:46.937Z,11.20
2022-09-07T03:49:16.634Z,11.60
2022-09-07T03:51:45.213Z,9.00
2022-09-07T03:54:15.143Z,10.20
2022-09-07T03:56:44.275Z,8.00
2022-09-07T03:59:12.840Z,10.20
2022-09-07T04:01:41.444Z,11.60
2022-09-07T04:04:10.591Z,8.40
2022-09-07T04:06:39.204Z,9.00
2022-09-07T04:09:09.693Z,8.80
2022-09-07T04:11:41.425Z,10.60
2022-09-07T04:14:10.676Z,11.20
2022-09-07T04:16:40.031Z,9.80
2022-09-07T04:19:08.648Z,7.00
2022-09-07T04:21:37.263Z,8.80
2022-09-07T04:24:06.783Z,9.20
2022-09-07T04:26:37.135Z,10.00
2022-09-07T04:29:08.695Z,9.20
2022-09-07T04:31:37.862Z,9.00
2022-09-07T04:34:07.556Z,8.20
2022-09-07T04:36:36.088Z,13.20
2022-09-07T04:39:06.982Z,11.80
2022-09-07T04:41:35.523Z,10.60
2022-09-07T04:44:05.487Z,10.60
2022-09-07T04:46:37.283Z,9.60
2022-09-07T04:49:08.243Z,10.80
2022-09-07T04:51:38.879Z,7.20
2022-09-07T04:54:07.632Z,8.00
2022-09-07T04:56:36.271Z,10.00
2022-09-07T04:59:05.258Z,9.40
2022-09-07T05:01:35.388Z,9.60
2022-09-07T05:04:04.980Z,9.00
2022-09-07T05:06:33.811Z,11.60
2022-09-07T05:09:02.551Z,10.40
2022-09-07T05:11:31.353Z,11.40
2022-09-07T05:14:01.229Z,9.60
2022-09-07T05:16:30.324Z,8.80
2022-09-07T05:19:02.230Z,9.20
2022-09-07T05:21:33.770Z,9.80
2022-09-07T05:24:03.392Z,9.00
2022-09-07T05:26:34.544Z,8.60
2022-09-07T05:31:53.351Z,10.40
2022-09-07T05:34:31.121Z,8.00
2022-09-07T05:37:00.959Z,8.80
2022-09-07T05:39:30.050Z,7.60
2022-09-07T05:41:58.712Z,8.20
2022-09-07T05:47:11.208Z,9.40
2022-09-07T05:49:41.672Z,2.40
2022-09-07T05:52:10.474Z,9.00
2022-09-07T05:54:39.289Z,8.40
2022-09-07T05:57:08.502Z,7.00
2022-09-07T05:59:36.961Z,9.60
2022-09-07T06:02:06.411Z,9.00
2022-09-07T06:04:35.276Z,9.00
2022-09-07T06:07:21.062Z,9.00
2022-09-07T06:12:39.600Z,9.20
2022-09-07T06:15:09.646Z,9.00
2022-09-07T06:17:38.099Z,5.80
2022-09-07T06:20:08.476Z,8.00
2022-09-07T06:22:39.816Z,9.00
2022-09-07T06:25:08.939Z,7.40
2022-09-07T06:27:37.659Z,9.40
2022-09-07T06:30:07.453Z,8.60
2022-09-07T06:32:45.699Z,9.80
2022-09-07T06:35:15.780Z,8.80
2022-09-07T06:37:45.941Z,10.00
2022-09-07T06:40:14.557Z,9.00
2022-09-07T06:42:43.508Z,7.60
2022-09-07T06:45:13.003Z,8.40
2022-09-07T06:47:41.969Z,8.60
2022-09-07T06:50:12.966Z,10.80
2022-09-07T06:55:32.063Z,9.20
2022-09-07T06:58:00.631Z,8.20
2022-09-07T07:00:29.621Z,9.20
2022-09-07T07:02:58.398Z,10.00
2022-09-07T07:05:26.895Z,10.00
2022-09-07T07:07:56.402Z,9.00
2022-09-07T07:10:25.348Z,8.00
2022-09-07T07:12:58.498Z,10.20
2022-09-07T07:15:29.457Z,10.20
2022-09-07T07:18:09.304Z,8.60
2022-09-07T07:20:47.316Z,10.40
2022-09-07T07:23:15.878Z,8.20
2022-09-07T07:25:45.466Z,9.00
2022-09-07T07:31:10.574Z,8.60
2022-09-07T07:33:42.655Z,8.40
2022-09-07T07:36:16.843Z,9.60
2022-09-07T07:39:03.446Z,8.20
2022-09-07T07:44:21.561Z,10.00
2022-09-07T07:46:50.722Z,10.00
2022-09-07T07:49:19.774Z,10.20
2022-09-07T07:54:37.902Z,10.40
2022-09-07T07:57:07.694Z,9.60
2022-09-07T07:59:37.555Z,10.00
2022-09-07T08:02:08.878Z,8.60
2022-09-07T08:04:37.963Z,9.20
2022-09-07T08:07:10.709Z,8.60
2022-09-07T08:09:41.570Z,11.00
2022-09-07T08:12:12.216Z,10.20
2022-09-07T08:14:42.417Z,8.40
2022-09-07T08:17:12.588Z,10.00
2022-09-07T08:19:41.737Z,9.60
2022-09-07T08:22:11.745Z,10.40
2022-09-07T08:24:40.893Z,11.00
2022-09-07T08:27:09.387Z,9.40
2022-09-07T08:29:38.074Z,10.40
2022-09-07T08:32:08.131Z,9.60
2022-09-07T08:34:37.774Z,8.80
2022-09-07T08:37:06.449Z,8.20
2022-09-07T08:39:35.950Z,8.60
2022-09-07T08:42:16.866Z,10.00
2022-09-07T08:44:50.040Z,9.40
2022-09-07T08:47:30.775Z,8.20
2022-09-07T08:50:05.385Z,9.00
2022-09-07T08:52:43.285Z,10.00
2022-09-07T08:55:17.673Z,9.60
2022-09-07T08:57:51.770Z,9.40
2022-09-07T09:00:20.815Z,9.00
2022-09-07T09:05:54.823Z,10.80
2022-09-07T09:08:34.634Z,10.60
2022-09-07T09:11:09.945Z,8.40
2022-09-07T09:13:52.367Z,10.20
2022-09-07T09:16:30.038Z,9.80
2022-09-07T09:19:15.573Z,12.00
2022-09-07T09:21:44.759Z,10.20
2022-09-07T09:24:17.700Z,12.00
2022-09-07T09:29:25.032Z,11.00
2022-09-07T09:31:53.643Z,11.60
2022-09-07T09:34:24.049Z,11.80
2022-09-07T09:36:58.003Z,12.00
2022-09-07T09:39:32.369Z,10.60
2022-09-07T09:42:15.219Z,11.20
2022-09-07T09:44:44.377Z,11.80
2022-09-07T09:47:31.575Z,11.40
2022-09-07T09:50:04.646Z,11.60
2022-09-07T09:52:47.815Z,10.00
2022-09-07T09:55:40.649Z,12.40
2022-09-07T10:01:25.361Z,11.20
2022-09-07T10:06:29.860Z,11.00
2022-09-07T10:09:01.979Z,12.00
2022-09-07T10:14:37.326Z,13.00
2022-09-07T10:17:19.230Z,12.60
2022-09-07T10:19:49.584Z,12.00
2022-09-07T10:22:36.787Z,14.00
2022-09-07T10:25:29.450Z,8.00
2022-09-07T10:28:08.113Z,13.00
2022-09-07T10:30:46.381Z,12.60
2022-09-07T10:33:20.088Z,12.20
2022-09-07T10:35:55.322Z,10.20
2022-09-07T10:38:26.059Z,12.00
2022-09-07T10:41:04.122Z,12.80
2022-09-07T10:43:44.647Z,11.00
2022-09-07T10:49:28.564Z,13.00
2022-09-07T10:52:10.629Z,11.80
2022-09-07T10:54:50.598Z,12.00
2022-09-07T10:57:33.901Z,12.20
2022-09-07T11:00:09.675Z,13.00
2022-09-07T11:06:06.544Z,13.60
2022-09-07T11:14:36.452Z,15.20
2022-09-07T11:17:14.105Z,14.20
2022-09-07T11:19:50.400Z,13.20
2022-09-07T11:22:28.527Z,15.00
2022-09-07T11:27:59.104Z,14.20
2022-09-07T11:30:32.574Z,12.80
2022-09-07T11:33:06.187Z,15.20
2022-09-07T11:35:41.052Z,13.60
2022-09-07T11:38:15.729Z,12.60
2022-09-07T11:40:56.379Z,15.00
2022-09-07T11:43:31.364Z,13.00
2022-09-07T11:46:05.859Z,12.80
2022-09-07T11:48:40.074Z,11.80
2022-09-07T11:51:16.295Z,13.20
2022-09-07T11:53:47.917Z,12.20
2022-09-07T11:56:24.830Z,13.40
2022-09-07T11:59:19.766Z,13.20
2022-09-07T12:02:05.456Z,11.00
2022-09-07T12:04:56.626Z,11.20
2022-09-07T12:07:47.013Z,11.20
2022-09-07T12:10:39.299Z,12.60
2022-09-07T12:13:38.596Z,12.20
2022-09-07T12:16:13.229Z,10.60
2022-09-07T12:19:03.770Z,12.00
2022-09-07T12:21:40.468Z,15.00
2022-09-07T12:24:43.797Z,10.20
2022-09-07T12:27:40.024Z,12.80
2022-09-07T12:30:44.807Z,11.20
2022-09-07T12:33:31.637Z,8.20
2022-09-07T12:36:02.059Z,12.20
2022-09-07T12:39:15.190Z,10.60
2022-09-07T12:42:31.757Z,17.25
2022-09-07T12:44:39.599Z,11.75
2022-09-07T12:47:28.120Z,11.25
2022-09-07T12:50:21.680Z,12.00
2022-09-07T12:53:09.148Z,11.75
2022-09-07T12:56:18.951Z,14.00
2022-09-07T12:59:02.085Z,12.25
2022-09-07T13:01:44.277Z,12.25
2022-09-07T13:04:41.551Z,11.40
2022-09-07T13:07:33.212Z,12.00
2022-09-07T13:10:03.876Z,13.25
2022-09-07T13:15:40.992Z,10.80
2022-09-07T13:18:43.469Z,17.00
2022-09-07T13:21:34.743Z,17.25
2022-09-07T13:24:46.416Z,14.75
2022-09-07T13:27:44.709Z,11.20
2022-09-07T13:30:27.178Z,13.75
2022-09-07T13:33:29.219Z,15.20
2022-09-07T13:36:01.341Z,14.00
2022-09-07T13:38:31.158Z,13.80
2022-09-07T13:41:07.403Z,13.60
2022-09-07T13:43:37.213Z,21.50
2022-09-07T13:46:16.507Z,29.00
2022-09-07T13:48:52.524Z,21.25
2022-09-07T13:51:29.154Z,17.75
2022-09-07T13:54:06.497Z,12.20
2022-09-07T13:56:46.608Z,13.80
2022-09-07T13:59:20.543Z,13.80
2022-09-07T14:01:51.501Z,17.00
2022-09-07T14:04:25.992Z,15.20
2022-09-07T14:07:02.777Z,11.40
2022-09-07T14:09:31.927Z,11.00
2022-09-07T14:12:01.944Z,10.40
2022-09-07T14:14:33.228Z,10.40
2022-09-07T14:17:06.046Z,13.00
2022-09-07T14:19:39.909Z,13.80
2022-09-07T14:22:13.693Z,11.60
2022-09-07T14:24:44.524Z,11.00
2022-09-07T14:27:25.432Z,14.60
2022-09-07T14:29:54.367Z,13.80
2022-09-07T14:32:25.607Z,11.20
2022-09-07T14:34:54.435Z,13.40
2022-09-07T14:37:23.915Z,11.00
2022-09-07T14:39:53.857Z,13.50
2022-09-07T14:42:25.258Z,12.80
2022-09-07T14:45:18.785Z,12.00
2022-09-07T14:47:48.547Z,10.80
2022-09-07T14:50:20.605Z,11.80
2022-09-07T14:55:42.170Z,13.00
2022-09-07T14:58:23.237Z,11.80
2022-09-07T15:03:56.362Z,12.40
2022-09-07T15:09:37.666Z,13.60
2022-09-07T15:12:19.084Z,11.20
2022-09-07T15:14:48.919Z,11.60
2022-09-07T15:20:45.590Z,10.20
2022-09-07T15:23:16.730Z,15.60
2022-09-07T15:25:51.111Z,10.60
2022-09-07T15:34:10.084Z,10.40
2022-09-07T15:36:40.600Z,9.20
2022-09-07T15:39:17.516Z,12.00
2022-09-07T15:41:46.138Z,15.20
2022-09-07T15:44:15.881Z,10.60
2022-09-07T15:47:43.210Z,13.60
2022-09-07T15:49:35.019Z,12.60
2022-09-07T15:52:05.605Z,12.20
2022-09-07T15:54:36.906Z,13.00
2022-09-07T15:59:56.429Z,12.00
2022-09-07T16:05:15.129Z,12.00
2022-09-07T16:10:32.617Z,12.00
2022-09-07T16:13:02.288Z,13.00
2022-09-07T16:15:31.528Z,20.50
2022-09-07T16:18:01.570Z,19.50
2022-09-07T16:20:32.230Z,11.80
2022-09-07T16:23:17.216Z,17.00
2022-09-07T16:25:57.078Z,14.60
2022-09-07T16:28:26.293Z,16.00
2022-09-07T16:30:55.971Z,11.00
2022-09-07T16:33:36.017Z,11.80
2022-09-07T16:36:09.144Z,12.20
2022-09-07T16:38:45.696Z,11.60
2022-09-07T16:41:15.295Z,22.00
2022-09-07T16:43:44.286Z,21.00
2022-09-07T16:46:15.219Z,25.50
2022-09-07T16:48:45.544Z,26.75
2022-09-07T16:51:18.713Z,21.75
2022-09-07T16:53:48.908Z,19.75
2022-09-07T16:56:19.421Z,24.75
2022-09-07T16:58:50.304Z,17.25
2022-09-07T17:01:21.121Z,15.75
2022-09-07T17:03:52.190Z,19.75
2022-09-07T17:06:23.639Z,17.00
2022-09-07T17:08:52.861Z,14.80
2022-09-07T17:11:22.947Z,13.00
2022-09-07T17:14:42.299Z,15.60
2022-09-07T17:17:11.092Z,15.00
2022-09-07T17:19:40.974Z,13.20
2022-09-07T17:22:09.482Z,22.25
2022-09-07T17:24:38.071Z,15.25
2022-09-07T17:27:06.820Z,17.50
2022-09-07T17:29:37.495Z,14.00
2022-09-07T17:34:56.453Z,16.40
2022-09-07T17:37:25.667Z,15.00
2022-09-07T17:39:54.307Z,13.80
2022-09-07T17:42:24.592Z,14.00
2022-09-07T17:44:53.379Z,13.20
2022-09-07T17:47:22.027Z,12.80
2022-09-07T17:49:50.386Z,11.60
2022-09-07T17:52:20.319Z,11.60
2022-09-07T17:54:48.668Z,13.40
2022-09-07T17:57:17.004Z,15.20
2022-09-07T18:02:38.174Z,12.00
2022-09-07T18:05:07.609Z,12.00
2022-09-07T18:07:37.419Z,11.80
2022-09-07T18:10:06.494Z,15.20
2022-09-07T18:12:35.395Z,15.40
2022-09-07T18:15:03.807Z,14.00
2022-09-07T18:17:32.496Z,16.40
2022-09-07T18:20:01.244Z,15.75
2022-09-07T18:22:29.676Z,14.20
2022-09-07T18:24:59.476Z,14.80
2022-09-07T18:27:28.212Z,15.00
2022-09-07T18:29:56.746Z,14.60
2022-09-07T18:32:25.562Z,12.80
2022-09-07T18:34:54.328Z,14.60
2022-09-07T18:37:22.846Z,13.00
2022-09-07T18:39:51.472Z,14.00
2022-09-07T18:42:22.348Z,14.60
2022-09-07T18:47:40.107Z,10.80
2022-09-07T18:50:09.366Z,16.60
2022-09-07T18:52:54.968Z,17.25
2022-09-07T18:55:27.554Z,17.50
2022-09-07T18:57:57.173Z,16.00
2022-09-07T19:00:25.738Z,13.20
2022-09-07T19:02:54.448Z,16.60
2022-09-07T19:08:11.307Z,16.60
2022-09-07T19:10:39.978Z,14.60
2022-09-07T19:13:09.789Z,18.40
2022-09-07T19:15:38.728Z,16.60
2022-09-07T19:18:08.740Z,18.60
2022-09-07T19:20:37.310Z,20.00
2022-09-07T19:23:06.841Z,18.40
2022-09-07T19:25:35.518Z,17.40
2022-09-07T19:28:04.298Z,17.60
2022-09-07T19:30:36.948Z,17.00
2022-09-07T19:33:09.914Z,15.60
2022-09-07T19:35:38.555Z,16.80
2022-09-07T19:38:06.946Z,17.40
2022-09-07T19:40:35.489Z,19.00
2022-09-07T19:43:04.146Z,21.25
2022-09-07T19:45:32.796Z,20.75
2022-09-07T19:48:02.856Z,19.00
2022-09-07T19:50:32.473Z,19.00
2022-09-07T19:53:01.442Z,16.50
2022-09-07T19:55:29.811Z,18.80
2022-09-07T19:57:58.600Z,19.50
2022-09-07T20:00:27.002Z,18.75
2022-09-07T20:02:55.979Z,18.00
2022-09-07T20:05:29.478Z,17.25
2022-09-07T20:07:58.530Z,14.60
2022-09-07T20:10:27.179Z,18.50
2022-09-07T20:12:55.529Z,15.75
2022-09-07T20:15:24.590Z,18.75
2022-09-07T20:17:53.925Z,18.00
2022-09-07T20:20:22.749Z,19.25
2022-09-07T20:22:52.510Z,20.00
2022-09-07T20:25:21.358Z,19.50
2022-09-07T20:27:49.758Z,18.50
2022-09-07T20:30:18.798Z,20.00
2022-09-07T20:32:47.880Z,18.00
2022-09-07T20:35:16.381Z,20.00
2022-09-07T20:37:44.981Z,19.50
2022-09-07T20:40:15.268Z,17.25
2022-09-07T20:42:45.487Z,18.80
2022-09-07T20:45:13.812Z,18.00
2022-09-07T20:47:42.412Z,20.25
2022-09-07T20:50:11.532Z,19.75
2022-09-07T20:52:39.888Z,20.60
2022-09-07T20:55:09.429Z,19.80
2022-09-07T20:57:39.534Z,19.60
2022-09-07T21:00:09.012Z,19.80
2022-09-07T21:02:37.787Z,19.40
2022-09-07T21:05:07.884Z,18.40
2022-09-07T21:07:39.050Z,18.00
2022-09-07T21:10:09.089Z,17.00
2022-09-07T21:12:37.769Z,17.80
2022-09-07T21:15:09.070Z,15.40
2022-09-07T21:17:38.742Z,19.00
2022-09-07T21:20:07.768Z,18.20
2022-09-07T21:22:36.195Z,17.20
2022-09-07T21:25:05.580Z,18.20
2022-09-07T21:27:38.542Z,18.40
2022-09-07T21:30:10.049Z,19.40
2022-09-07T21:32:40.408Z,17.80
2022-09-07T21:35:10.698Z,17.25
2022-09-07T21:37:39.168Z,18.50
2022-09-07T21:40:08.873Z,19.75
2022-09-07T21:42:37.802Z,18.75
2022-09-07T21:45:07.145Z,19.50
2022-09-07T21:47:36.884Z,18.00
2022-09-07T21:50:06.442Z,17.60
2022-09-07T21:52:35.106Z,21.25
2022-09-07T21:55:03.461Z,18.75
2022-09-07T21:57:32.168Z,19.25
2022-09-07T22:00:00.694Z,20.75
2022-09-07T22:02:29.085Z,19.60
2022-09-07T22:04:59.103Z,18.20
2022-09-07T22:07:27.480Z,18.40
2022-09-07T22:09:55.852Z,19.40
2022-09-07T22:12:24.656Z,21.50
2022-09-07T22:14:53.218Z,20.25
2022-09-07T22:17:22.099Z,19.75
2022-09-07T22:19:51.025Z,20.00
2022-09-07T22:22:20.978Z,19.80
2022-09-07T22:24:49.450Z,19.50
2022-09-07T22:27:18.464Z,20.50
2022-09-07T22:29:46.957Z,20.20
2022-09-07T22:32:15.430Z,18.20
2022-09-07T22:34:44.031Z,16.00
2022-09-07T22:37:12.416Z,19.25
2022-09-07T22:39:42.302Z,21.00
2022-09-07T22:42:10.906Z,18.50
2022-09-07T22:44:39.595Z,18.40
2022-09-07T22:47:07.981Z,20.20
2022-09-07T22:49:36.661Z,16.80
2022-09-07T22:52:05.293Z,18.60
2022-09-07T22:54:33.750Z,20.50
2022-09-07T22:57:03.876Z,19.50
2022-09-07T22:59:32.409Z,17.40
2022-09-07T23:02:00.782Z,19.00
2022-09-07T23:04:31.707Z,22.75
2022-09-07T23:07:00.856Z,20.40
2022-09-07T23:09:31.239Z,19.60
2022-09-07T23:11:59.582Z,18.40
2022-09-07T23:14:29.341Z,19.00
2022-09-07T23:16:58.077Z,19.80
2022-09-07T23:19:26.570Z,20.25
2022-09-07T23:21:55.253Z,20.25
2022-09-07T23:24:23.922Z,21.00
2022-09-07T23:26:52.640Z,18.00
2022-09-07T23:29:21.275Z,20.25
2022-09-07T23:31:51.632Z,20.25
2022-09-07T23:34:20.147Z,19.00
2022-09-07T23:36:49.001Z,19.80
2022-09-07T23:39:17.770Z,18.00
2022-09-07T23:41:46.454Z,20.40
2022-09-07T23:44:14.958Z,20.40
2022-09-07T23:46:43.596Z,19.80
2022-09-07T23:49:13.477Z,18.60
2022-09-07T23:51:41.802Z,20.00
2022-09-07T23:54:11.047Z,17.80
2022-09-07T23:56:39.622Z,19.40
2022-09-07T23:59:08.345Z,17.80
